createdAt,value
2019-04-28T00:02:12.490Z,100685.52
2019-04-28T00:07:16.692Z,100679.34
2019-04-28T00:12:21.014Z,100677.13
2019-04-28T00:17:26.808Z,100686.91
2019-04-28T00:22:44.299Z,100695.02
2019-04-28T00:27:48.476Z,100701.70
2019-04-28T00:32:52.666Z,100702.00
2019-04-28T00:37:56.837Z,100691.51
2019-04-28T00:43:01.044Z,100699.92
2019-04-28T00:48:05.315Z,100686.68
2019-04-28T00:53:09.503Z,100692.47
2019-04-28T00:58:13.688Z,100704.05
2019-04-28T01:03:17.858Z,100708.95
2019-04-28T01:08:22.071Z,100708.84
2019-04-28T01:13:26.261Z,100706.33
2019-04-28T01:18:40.509Z,100703.89
2019-04-28T01:23:44.787Z,100717.47
2019-04-28T01:28:49.700Z,100723.64
2019-04-28T01:34:20.422Z,100732.78
2019-04-28T01:39:25.764Z,100736.80
2019-04-28T01:44:29.965Z,100734.05
2019-04-28T01:49:34.285Z,100733.78
2019-04-28T01:54:40.072Z,100743.05
2019-04-28T01:59:44.625Z,100745.20
2019-04-28T02:04:49.881Z,100752.30
2019-04-28T02:09:54.416Z,100750.13
2019-04-28T02:15:00.603Z,100750.41
2019-04-28T02:20:05.181Z,100763.42
2019-04-28T02:25:10.001Z,100761.61
2019-04-28T02:30:14.459Z,100755.47
2019-04-28T02:35:21.175Z,100769.51
2019-04-28T02:40:24.663Z,100767.76
2019-04-28T02:45:31.371Z,100777.31
2019-04-28T02:50:50.952Z,100784.37
2019-04-28T02:55:54.842Z,100789.40
2019-04-28T03:01:11.285Z,100798.89
2019-04-28T03:06:05.004Z,100797.95
2019-04-28T03:11:10.683Z,100808.38
2019-04-28T03:16:15.059Z,100814.83
2019-04-28T03:21:21.351Z,100815.60
2019-04-28T03:26:37.849Z,100821.38
2019-04-28T03:32:25.292Z,100825.25
2019-04-28T03:37:12.956Z,100822.06
2019-04-28T03:42:17.167Z,100828.14
2019-04-28T03:47:21.685Z,100831.81
2019-04-28T03:52:25.982Z,100834.53
2019-04-28T03:57:31.344Z,100837.27
2019-04-28T04:02:35.863Z,100839.61
2019-04-28T04:07:42.805Z,100849.38
2019-04-28T04:12:53.684Z,100851.48
2019-04-28T04:18:03.232Z,100854.03
2019-04-28T04:23:07.422Z,100853.02
2019-04-28T04:28:11.622Z,100872.89
2019-04-28T04:33:15.803Z,100879.07
2019-04-28T04:38:21.722Z,100879.28
2019-04-28T04:43:26.028Z,100877.52
2019-04-28T04:48:31.142Z,100876.25
2019-04-28T04:53:35.491Z,100894.39
2019-04-28T04:58:40.628Z,100901.80
2019-04-28T05:03:46.827Z,100911.77
2019-04-28T05:08:51.032Z,100919.86
2019-04-28T05:13:55.222Z,100918.31
2019-04-28T05:19:00.133Z,100917.63
2019-04-28T05:24:30.398Z,100933.55
2019-04-28T05:29:34.744Z,100926.22
2019-04-28T05:34:41.405Z,100945.34
2019-04-28T05:39:44.850Z,100963.32
2019-04-28T05:44:49.639Z,100974.61
2019-04-28T05:50:11.865Z,100984.48
2019-04-28T05:55:20.433Z,100980.38
2019-04-28T06:01:00.286Z,100980.17
2019-04-28T06:06:04.604Z,100973.50
2019-04-28T06:11:26.568Z,100982.31
2019-04-28T06:16:30.772Z,100986.42
2019-04-28T06:21:35.076Z,100989.20
2019-04-28T06:26:39.302Z,100992.89
2019-04-28T06:31:43.530Z,100990.09
2019-04-28T06:36:47.705Z,100985.80
2019-04-28T06:41:51.899Z,100983.80
2019-04-28T06:46:56.075Z,100995.02
2019-04-28T06:52:00.385Z,101000.47
2019-04-28T06:57:04.596Z,100998.59
2019-04-28T07:02:08.779Z,101008.39
2019-04-28T07:07:12.975Z,101010.01
2019-04-28T07:12:17.164Z,101006.32
2019-04-28T07:17:21.351Z,101020.59
2019-04-28T07:22:27.543Z,101018.13
2019-04-28T07:27:31.756Z,101017.88
2019-04-28T07:32:35.938Z,101020.45
2019-04-28T07:37:40.120Z,101015.10
2019-04-28T07:42:44.299Z,101024.27
2019-04-28T07:47:48.487Z,101031.16
2019-04-28T07:53:05.024Z,101039.55
2019-04-28T07:58:09.245Z,101044.13
2019-04-28T08:03:13.441Z,101055.14
2019-04-28T08:08:17.646Z,101066.15
2019-04-28T08:13:21.831Z,101076.59
2019-04-28T08:18:26.035Z,101084.81
2019-04-28T08:23:30.225Z,101093.86
2019-04-28T08:28:34.425Z,101100.22
2019-04-28T08:34:02.742Z,101101.62
2019-04-28T08:39:06.158Z,101107.33
2019-04-28T08:44:10.369Z,101116.01
2019-04-28T08:49:14.591Z,101122.84
2019-04-28T08:54:18.782Z,101140.05
2019-04-28T08:59:22.973Z,101149.52
2019-04-28T09:04:27.155Z,101161.19
2019-04-28T09:09:31.357Z,101167.77
2019-04-28T09:14:35.675Z,101164.80
2019-04-28T09:19:42.315Z,101155.94
2019-04-28T09:24:45.798Z,101162.37
2019-04-28T09:29:49.978Z,101164.09
2019-04-28T09:34:54.154Z,101166.33
2019-04-28T09:40:09.552Z,101183.92
2019-04-28T09:45:18.079Z,101180.23
2019-04-28T09:50:22.301Z,101181.88
2019-04-28T09:55:26.517Z,101183.33
2019-04-28T10:00:30.713Z,101193.78
2019-04-28T10:05:34.907Z,101204.70
2019-04-28T10:10:39.112Z,101195.02
2019-04-28T10:15:43.490Z,101200.91
2019-04-28T10:20:47.707Z,101207.66
2019-04-28T10:25:51.899Z,101202.11
2019-04-28T10:30:56.103Z,101200.84
2019-04-28T10:36:00.299Z,101204.60
2019-04-28T10:41:09.275Z,101210.75
2019-04-28T10:46:13.456Z,101210.53
2019-04-28T10:51:17.643Z,101210.17
2019-04-28T10:56:21.827Z,101214.91
2019-04-28T11:01:26.043Z,101219.42
2019-04-28T11:06:30.232Z,101213.02
2019-04-28T11:11:34.517Z,101209.64
2019-04-28T11:16:39.088Z,101205.26
2019-04-28T11:21:43.402Z,101208.38
2019-04-28T11:26:47.612Z,101212.22
2019-04-28T11:31:51.790Z,101207.95
2019-04-28T11:36:56.049Z,101223.45
2019-04-28T11:42:00.297Z,101224.28
2019-04-28T11:47:06.737Z,101230.81
2019-04-28T11:52:11.047Z,101231.14
2019-04-28T11:57:15.286Z,101233.53
2019-04-28T12:02:19.681Z,101233.06
2019-04-28T12:07:24.280Z,101233.47
2019-04-28T12:12:38.069Z,101230.34
2019-04-28T12:18:04.179Z,101236.27
2019-04-28T12:23:09.859Z,101234.57
2019-04-28T12:28:14.225Z,101243.98
2019-04-28T12:33:18.424Z,101241.56
2019-04-28T12:38:22.621Z,101241.58
2019-04-28T12:43:27.789Z,101233.14
2019-04-28T12:48:32.750Z,101245.23
2019-04-28T12:53:37.026Z,101238.06
2019-04-28T12:58:41.228Z,101242.33
2019-04-28T13:04:11.320Z,101246.44
2019-04-28T13:09:15.653Z,101250.69
2019-04-28T13:14:19.842Z,101247.55
2019-04-28T13:19:24.087Z,101252.39
2019-04-28T13:24:28.300Z,101253.31
2019-04-28T13:29:33.092Z,101267.60
2019-04-28T13:34:39.468Z,101262.10
2019-04-28T13:39:59.887Z,101241.22
2019-04-28T13:45:11.379Z,101266.74
2019-04-28T13:50:23.891Z,101255.67
2019-04-28T13:55:53.080Z,101254.55
2019-04-28T14:01:22.098Z,101256.42
2019-04-28T14:06:28.762Z,101236.29
2019-04-28T14:11:33.195Z,101242.19
2019-04-28T14:16:37.388Z,101243.87
2019-04-28T14:21:41.637Z,101247.86
2019-04-28T14:26:45.970Z,101251.53
2019-04-28T14:31:50.197Z,101252.94
2019-04-28T14:36:54.422Z,101256.52
2019-04-28T14:41:58.644Z,101260.33
2019-04-28T14:47:02.858Z,101252.34
2019-04-28T14:52:07.001Z,101256.50
2019-04-28T14:57:11.193Z,101248.14
2019-04-28T15:02:37.245Z,101257.88
2019-04-28T15:08:00.349Z,101256.88
2019-04-28T15:13:05.216Z,101255.81
2019-04-28T15:18:09.510Z,101265.13
2019-04-28T15:23:13.681Z,101273.06
2019-04-28T15:28:17.905Z,101275.17
2019-04-28T15:33:22.091Z,101277.91
2019-04-28T15:38:26.295Z,101272.61
2019-04-28T15:43:30.513Z,101269.77
2019-04-28T15:48:34.731Z,101266.08
2019-04-28T15:53:38.941Z,101271.39
2019-04-28T15:58:43.130Z,101272.02
2019-04-28T16:03:47.340Z,101280.55
2019-04-28T16:08:51.542Z,101264.81
2019-04-28T16:13:55.737Z,101274.89
2019-04-28T16:19:00.023Z,101269.66
2019-04-28T16:24:04.511Z,101269.56
2019-04-28T16:29:08.753Z,101266.77
2019-04-28T16:34:12.986Z,101273.30
2019-04-28T16:39:17.203Z,101273.83
2019-04-28T16:44:28.490Z,101278.98
2019-04-28T16:49:32.785Z,101282.50
2019-04-28T16:54:36.983Z,101278.33
2019-04-28T16:59:58.376Z,101282.75
2019-04-28T17:05:02.640Z,101280.78
2019-04-28T17:10:07.241Z,101287.40
2019-04-28T17:15:12.277Z,101281.39
2019-04-28T17:20:16.728Z,101286.84
2019-04-28T17:25:21.052Z,101291.05
2019-04-28T17:30:25.473Z,101297.00
2019-04-28T17:35:29.807Z,101299.58
2019-04-28T17:40:34.488Z,101306.28
2019-04-28T17:45:38.775Z,101313.75
2019-04-28T17:50:45.325Z,101316.27
2019-04-28T17:55:49.168Z,101320.41
2019-04-28T18:01:24.557Z,101330.13
2019-04-28T18:06:29.954Z,101334.86
2019-04-28T18:11:34.206Z,101341.95
2019-04-28T18:16:56.553Z,101340.78
2019-04-28T18:22:00.930Z,101342.89
2019-04-28T18:27:05.141Z,101356.03
2019-04-28T18:32:27.071Z,101356.73
2019-04-28T18:37:50.505Z,101363.45
2019-04-28T18:43:01.850Z,101365.39
2019-04-28T18:48:06.471Z,101377.91
2019-04-28T18:53:12.384Z,101378.80
2019-04-28T18:58:16.748Z,101390.05
2019-04-28T19:03:21.342Z,101398.01
2019-04-28T19:08:49.444Z,101394.66
2019-04-28T19:13:54.260Z,101398.91
2019-04-28T19:19:01.202Z,101397.19
2019-04-28T19:24:13.752Z,101397.27
2019-04-28T19:29:18.895Z,101402.00
2019-04-28T19:34:25.986Z,101405.21
2019-04-28T19:39:31.955Z,101398.02
2019-04-28T19:44:37.005Z,101404.30
2019-04-28T19:49:41.507Z,101404.96
2019-04-28T19:55:23.527Z,101397.31
2019-04-28T20:00:37.088Z,101399.61
2019-04-28T20:05:42.106Z,101398.55
2019-04-28T20:10:46.733Z,101392.16
2019-04-28T20:15:51.278Z,101402.39
2019-04-28T20:20:55.675Z,101404.67
2019-04-28T20:25:59.947Z,101412.37
2019-04-28T20:31:04.193Z,101393.35
2019-04-28T20:36:14.746Z,101417.57
2019-04-28T20:41:22.804Z,101413.47
2019-04-28T20:46:27.059Z,101419.01
2019-04-28T20:51:31.328Z,101416.83
2019-04-28T20:56:35.485Z,101427.05
2019-04-28T21:01:39.695Z,101433.66
2019-04-28T21:06:44.028Z,101428.94
2019-04-28T21:11:48.220Z,101436.97
2019-04-28T21:16:52.419Z,101437.68
2019-04-28T21:21:56.610Z,101435.61
2019-04-28T21:27:00.824Z,101440.44
2019-04-28T21:32:05.022Z,101439.31
2019-04-28T21:37:09.365Z,101438.81
2019-04-28T21:42:17.035Z,101433.44
2019-04-28T21:47:24.807Z,101438.39
2019-04-28T21:52:29.020Z,101435.91
2019-04-28T21:57:33.201Z,101439.73
2019-04-28T22:02:37.409Z,101440.75
2019-04-28T22:07:41.749Z,101439.52
2019-04-28T22:12:45.927Z,101439.80
2019-04-28T22:17:50.123Z,101437.13
2019-04-28T22:22:54.329Z,101432.09
2019-04-28T22:27:58.526Z,101434.20
2019-04-28T22:33:02.722Z,101423.44
2019-04-28T22:38:06.929Z,101422.97
2019-04-28T22:43:11.243Z,101421.44
2019-04-28T22:48:17.221Z,101415.94
2019-04-28T22:53:25.138Z,101411.80
2019-04-28T22:58:39.297Z,101418.81
2019-04-28T23:04:14.634Z,101408.41
2019-04-28T23:09:20.744Z,101409.54
2019-04-28T23:14:27.757Z,101413.17
2019-04-28T23:19:54.230Z,101403.81
2019-04-28T23:25:15.297Z,101401.45
2019-04-28T23:36:49.714Z,101396.75
2019-04-28T23:42:14.542Z,101395.72
2019-04-28T23:47:18.733Z,101399.03
2019-04-28T23:52:50.707Z,101391.81
2019-04-28T23:58:32.895Z,101395.78
